Main page
METAR-TAF:

METAR-TAF

Airports :

Jay Prakash Narayan International Airport

Patna, India

latitude: 25-36N, longitude: 085-06E, elevation: 51 m

Current weather observation

The report was made 17 minutes ago, at 02:30 UTC
Wind 6 kt from the East
Temperature 29°C
Humidity 70%
Pressure 1005 hPa
Visibility: 3500 m
Scattered clouds at a height of 10000 ft
haze

METAR: VEPT 260230Z 09006KT 3500 HZ SCT100 29/23 Q1005 NOSIG

Time: 08:17 (02:47 UTC)

Forecast

The report was made 47 minutes ago, at 02:00 UTC
Forecast valid from 26 at 03 UTC to 26 at 12 UTC
Wind kt from the North
Visibility: 3000 m
Scattered clouds at a height of 10000 ft
mist
Becoming
from 26 at 08 UTC to 26 at 10 UTC
Visibility: 4000 m
Few clouds at a height of 2000 ft
Few clouds at a height of 3000 ft, Cumulonimbus.
Broken clouds at a height of 10000 ft
light rain

TAF: VEPT 260200Z 2603/2612 00000KT 3000 BR SCT100 BECMG 2608/2610 4000 -RA FEW020 FEW030CB BKN100

Weather observations and forecasts of more than 4000 airports (METAR and TAF reports).

The available stations are represented by yellow and red dots on the map.

Hover mouse over dot to see the name of the station.

Then click to see weather observations and forecasts.

To change the map : click on the green buttons with a black cross to zoom in, on the green button with a dash to zoom out, or on the green arrows for adjacent maps.


METAR-TAF: